Time;durP1;ratioP1;P1;durP2;ratioP2;P2;SDS_P1;SDS_P2;PMS_P1;PMS_P2;Temp;Humidity;BMP_temperature;BMP_pressure;BME280_temperature;BME280_humidity;BME280_pressure;Samples;Min_cycle;Max_cycle;Signal;HPM_P1;HPM_P2
2021/10/28 00:13:51;;;;;;;194.48;72.47;;;;;;;;;;763446;182;918888;-65
2021/10/28 00:16:20;;;;;;;395.37;100.57;;;;;;;;;;767294;183;1128184;-63
2021/10/28 00:18:44;;;;;;;340.13;91.77;;;;;;;;;;761936;183;919911;-64
2021/10/28 00:21:07;;;;;;;307.27;86.27;;;;;;;;;;762195;182;915167;-65
2021/10/28 00:23:40;;;;;;;326.20;90.97;;;;;;;;;;769720;183;914297;-65
2021/10/28 00:25:58;;;;;;;281.95;80.57;;;;;;;;;;761293;183;919984;-64
2021/10/28 00:28:25;;;;;;;239.93;82.88;;;;;;;;;;765776;183;915068;-64
2021/10/28 00:30:50;;;;;;;329.47;93.13;;;;;;;;;;771276;183;918284;-63
2021/10/28 00:33:16;;;;;;;302.10;88.67;;;;;;;;;;758068;183;918691;-64
2021/10/28 00:35:42;;;;;;;268.37;85.17;;;;;;;;;;760120;183;919494;-64
2021/10/28 00:38:08;;;;;;;299.83;84.07;;;;;;;;;;767669;183;919304;-65
2021/10/28 00:40:33;;;;;;;360.23;89.47;;;;;;;;;;773314;183;919885;-64
2021/10/28 00:43:00;;;;;;;424.27;103.40;;;;;;;;;;770076;182;918936;-64
2021/10/28 00:45:25;;;;;;;403.10;95.90;;;;;;;;;;763564;183;919718;-64
2021/10/28 00:47:51;;;;;;;301.63;91.47;;;;;;;;;;768847;183;918934;-64
2021/10/28 00:50:17;;;;;;;272.53;86.27;;;;;;;;;;766157;183;919112;-65
2021/10/28 00:52:43;;;;;;;291.00;84.50;;;;;;;;;;767418;183;1020608;-64
2021/10/28 00:55:09;;;;;;;284.60;83.87;;;;;;;;;;769878;183;918677;-64
2021/10/28 00:57:34;;;;;;;248.40;75.57;;;;;;;;;;765441;183;918676;-64
2021/10/28 01:00:04;;;;;;;244.07;79.90;;;;;;;;;;757647;183;919395;-64
2021/10/28 01:02:26;;;;;;;185.50;66.93;;;;;;;;;;759305;183;919205;-64
2021/10/28 01:04:52;;;;;;;211.50;72.20;;;;;;;;;;770327;181;919063;-64
2021/10/28 01:07:19;;;;;;;238.13;78.07;;;;;;;;;;764253;183;918489;-64
2021/10/28 01:09:45;;;;;;;285.17;84.63;;;;;;;;;;765964;183;918755;-63
2021/10/28 01:12:11;;;;;;;252.00;79.17;;;;;;;;;;771249;183;918432;-64
2021/10/28 01:14:42;;;;;;;287.27;82.33;;;;;;;;;;762537;183;920285;-65
2021/10/28 01:17:08;;;;;;;230.37;75.10;;;;;;;;;;762161;183;919380;-64
2021/10/28 01:19:34;;;;;;;309.33;84.57;;;;;;;;;;761390;183;919406;-63
2021/10/28 01:22:00;;;;;;;270.77;82.50;;;;;;;;;;772890;181;919220;-63
2021/10/28 01:24:25;;;;;;;287.30;81.80;;;;;;;;;;770012;182;919532;-64
2021/10/28 01:26:51;;;;;;;270.23;83.97;;;;;;;;;;764941;183;919276;-64
2021/10/28 01:29:17;;;;;;;236.77;77.07;;;;;;;;;;772059;183;919305;-64
2021/10/28 01:31:43;;;;;;;249.15;81.43;;;;;;;;;;765439;183;1014034;-64
2021/10/28 01:34:09;;;;;;;331.60;89.97;;;;;;;;;;765501;183;921875;-64
2021/10/28 01:36:35;;;;;;;238.53;80.53;;;;;;;;;;766863;183;918629;-62
2021/10/28 01:39:01;;;;;;;341.23;92.83;;;;;;;;;;764435;183;918527;-63
2021/10/28 01:41:27;;;;;;;341.93;94.00;;;;;;;;;;765234;183;917850;-63
2021/10/28 01:43:53;;;;;;;243.77;83.47;;;;;;;;;;767504;183;919164;-64
2021/10/28 01:46:18;;;;;;;265.37;88.53;;;;;;;;;;763772;183;1020855;-63
2021/10/28 01:48:45;;;;;;;228.00;77.00;;;;;;;;;;765340;183;920021;-62
2021/10/28 01:51:10;;;;;;;290.90;83.43;;;;;;;;;;765022;183;919536;-63
2021/10/28 01:53:37;;;;;;;242.05;83.25;;;;;;;;;;769347;183;954541;-61
2021/10/28 01:56:02;;;;;;;266.73;87.50;;;;;;;;;;764919;183;919553;-63
2021/10/28 01:58:28;;;;;;;262.00;84.55;;;;;;;;;;766162;183;919204;-62
2021/10/28 02:00:54;;;;;;;227.70;81.70;;;;;;;;;;772145;183;918457;-64
2021/10/28 02:03:20;;;;;;;310.67;94.53;;;;;;;;;;768206;183;918130;-62
2021/10/28 02:05:47;;;;;;;254.52;75.55;;;;;;;;;;762647;183;919478;-63
2021/10/28 02:08:12;;;;;;;283.30;89.03;;;;;;;;;;771280;182;943716;-62
2021/10/28 02:10:38;;;;;;;321.70;85.73;;;;;;;;;;765058;183;919952;-63
2021/10/28 02:13:03;;;;;;;276.30;83.33;;;;;;;;;;764989;183;918860;-63
2021/10/28 02:15:29;;;;;;;253.73;81.67;;;;;;;;;;765298;183;918666;-63
2021/10/28 02:17:55;;;;;;;243.83;79.23;;;;;;;;;;769861;183;918327;-63
2021/10/28 02:20:21;;;;;;;254.07;79.37;;;;;;;;;;762616;183;922647;-63
2021/10/28 02:22:47;;;;;;;190.70;70.17;;;;;;;;;;764015;183;919568;-63
2021/10/28 02:25:13;;;;;;;211.50;79.20;;;;;;;;;;768685;183;918163;-63
2021/10/28 02:27:38;;;;;;;164.73;67.67;;;;;;;;;;762511;183;917120;-62
2021/10/28 02:30:05;;;;;;;199.90;71.60;;;;;;;;;;764927;183;1020134;-62
2021/10/28 02:32:31;;;;;;;167.40;66.80;;;;;;;;;;773785;180;920755;-63
2021/10/28 02:34:57;;;;;;;193.57;71.33;;;;;;;;;;769851;182;926323;-63
2021/10/28 02:37:23;;;;;;;211.80;69.80;;;;;;;;;;768870;182;915583;-63
2021/10/28 02:39:48;;;;;;;236.07;77.20;;;;;;;;;;766927;183;916385;-64
2021/10/28 02:42:14;;;;;;;205.45;79.35;;;;;;;;;;776741;180;919985;-62
2021/10/28 02:44:41;;;;;;;229.77;77.03;;;;;;;;;;766874;183;919904;-63
2021/10/28 02:47:06;;;;;;;245.43;84.97;;;;;;;;;;763918;183;919959;-62
2021/10/28 02:49:32;;;;;;;191.27;69.65;;;;;;;;;;771743;183;919412;-63
2021/10/28 02:51:58;;;;;;;172.57;72.87;;;;;;;;;;761797;183;918963;-63
2021/10/28 02:54:24;;;;;;;170.10;66.10;;;;;;;;;;759868;183;918135;-63
2021/10/28 02:56:49;;;;;;;162.70;67.90;;;;;;;;;;769461;183;919542;-63
2021/10/28 02:59:16;;;;;;;217.57;73.00;;;;;;;;;;762998;183;918373;-63
2021/10/28 03:01:42;;;;;;;194.35;68.97;;;;;;;;;;763172;183;919339;-63
2021/10/28 03:04:08;;;;;;;331.50;89.00;;;;;;;;;;763974;183;918959;-63
2021/10/28 03:06:37;;;;;;;248.50;80.47;;;;;;;;;;770273;182;918543;-62
2021/10/28 03:08:59;;;;;;;295.20;91.40;;;;;;;;;;767332;182;920345;-62
2021/10/28 03:11:25;;;;;;;327.80;85.27;;;;;;;;;;762985;183;937523;-62
2021/10/28 03:13:51;;;;;;;265.23;80.70;;;;;;;;;;765508;183;932657;-62
2021/10/28 03:16:25;;;;;;;308.93;87.10;;;;;;;;;;762921;183;919554;-63
2021/10/28 03:26:19;;;;;;;296.00;79.30;;;;;;;;;;753423;183;919869;-64
2021/10/28 03:28:44;;;;;;;233.77;73.30;;;;;;;;;;760260;183;920633;-63
2021/10/28 03:31:10;;;;;;;355.48;89.18;;;;;;;;;;760600;183;918758;-62
2021/10/28 03:33:38;;;;;;;241.07;74.60;;;;;;;;;;764282;183;918123;-64
2021/10/28 03:36:04;;;;;;;266.50;77.60;;;;;;;;;;763200;183;1003700;-64
2021/10/28 03:38:33;;;;;;;299.67;78.03;;;;;;;;;;759222;183;917369;-63
2021/10/28 03:41:33;;;;;;;334.60;82.83;;;;;;;;;;768912;183;911180;-64
2021/10/28 03:43:46;;;;;;;227.27;77.60;;;;;;;;;;761550;183;921323;-63
2021/10/28 03:51:45;;;;;;;227.68;77.45;;;;;;;;;;757393;183;1157955;-64
2021/10/28 03:58:59;;;;;;;191.60;70.53;;;;;;;;;;767473;183;918693;-64
2021/10/28 04:16:39;;;;;;;144.73;57.87;;;;;;;;;;764323;183;921244;-64
2021/10/28 04:21:39;;;;;;;105.77;52.00;;;;;;;;;;753990;183;918885;-64
2021/10/28 04:29:04;;;;;;;116.10;52.10;;;;;;;;;;759292;183;1253858;-64
2021/10/28 04:31:29;;;;;;;142.37;55.90;;;;;;;;;;767229;183;918631;-64
2021/10/28 04:33:55;;;;;;;177.40;62.70;;;;;;;;;;758317;183;917980;-63
2021/10/28 04:36:28;;;;;;;173.10;60.20;;;;;;;;;;766717;183;918543;-64
2021/10/28 04:38:50;;;;;;;146.13;53.37;;;;;;;;;;763196;183;918593;-63
2021/10/28 04:41:16;;;;;;;127.97;59.03;;;;;;;;;;769965;182;918550;-64
2021/10/28 04:43:42;;;;;;;166.20;57.13;;;;;;;;;;762508;183;937792;-64
2021/10/28 04:46:07;;;;;;;124.10;55.53;;;;;;;;;;765055;183;919266;-64
2021/10/28 04:48:33;;;;;;;152.90;55.00;;;;;;;;;;770311;183;889810;-63
2021/10/28 04:50:59;;;;;;;121.13;51.92;;;;;;;;;;764918;183;919094;-64
2021/10/28 04:53:25;;;;;;;171.57;55.90;;;;;;;;;;763836;183;1020915;-64
2021/10/28 04:55:51;;;;;;;198.40;61.13;;;;;;;;;;772061;180;919666;-64
2021/10/28 04:58:17;;;;;;;137.57;54.70;;;;;;;;;;765639;182;918570;-64
2021/10/28 05:00:43;;;;;;;114.70;52.70;;;;;;;;;;763961;182;919044;-63
2021/10/28 05:03:09;;;;;;;130.57;53.80;;;;;;;;;;764953;183;918615;-64
2021/10/28 05:05:35;;;;;;;138.70;55.47;;;;;;;;;;757553;183;1021954;-63
2021/10/28 05:08:00;;;;;;;98.77;51.03;;;;;;;;;;760292;183;1089506;-64
2021/10/28 05:10:30;;;;;;;129.47;53.83;;;;;;;;;;763967;183;1020936;-63
2021/10/28 05:12:53;;;;;;;141.63;59.87;;;;;;;;;;769989;183;919420;-64
2021/10/28 05:15:19;;;;;;;131.37;54.60;;;;;;;;;;764107;183;923437;-64
2021/10/28 05:17:45;;;;;;;124.03;54.43;;;;;;;;;;763644;183;921035;-64
2021/10/28 05:20:11;;;;;;;125.70;52.03;;;;;;;;;;768988;183;918989;-64
2021/10/28 05:22:36;;;;;;;151.53;58.57;;;;;;;;;;764967;183;918385;-64
2021/10/28 05:25:03;;;;;;;145.73;52.63;;;;;;;;;;762057;183;1022163;-64
2021/10/28 05:27:28;;;;;;;122.77;52.80;;;;;;;;;;758834;183;917240;-62
2021/10/28 05:29:54;;;;;;;148.43;60.03;;;;;;;;;;767163;180;919507;-64
2021/10/28 05:32:20;;;;;;;158.17;57.03;;;;;;;;;;763252;183;919006;-64
2021/10/28 05:34:48;;;;;;;136.87;53.07;;;;;;;;;;764607;183;919077;-63
2021/10/28 05:37:11;;;;;;;134.43;58.67;;;;;;;;;;769981;183;927613;-64
2021/10/28 05:39:37;;;;;;;197.93;59.93;;;;;;;;;;763155;183;919475;-64
2021/10/28 05:42:03;;;;;;;178.90;59.23;;;;;;;;;;763801;183;918879;-64
2021/10/28 05:44:29;;;;;;;149.70;56.93;;;;;;;;;;770481;183;1021677;-64
2021/10/28 05:46:55;;;;;;;128.50;54.38;;;;;;;;;;763290;183;919133;-64
2021/10/28 05:49:21;;;;;;;139.47;55.53;;;;;;;;;;763337;183;919436;-64
2021/10/28 05:51:47;;;;;;;115.77;47.77;;;;;;;;;;768967;183;918782;-64
2021/10/28 05:54:13;;;;;;;149.53;54.20;;;;;;;;;;765032;183;918873;-63
2021/10/28 05:56:39;;;;;;;127.80;51.30;;;;;;;;;;763066;183;919260;-63
2021/10/28 05:59:04;;;;;;;113.30;50.87;;;;;;;;;;764245;183;919256;-64
2021/10/28 06:01:30;;;;;;;108.73;47.33;;;;;;;;;;771797;183;917531;-63
2021/10/28 06:03:56;;;;;;;108.30;49.30;;;;;;;;;;768212;183;918813;-63
2021/10/28 06:06:22;;;;;;;117.77;50.57;;;;;;;;;;765042;183;918685;-63
2021/10/28 06:08:48;;;;;;;114.83;49.90;;;;;;;;;;771752;182;918622;-63
2021/10/28 06:11:16;;;;;;;98.00;50.73;;;;;;;;;;765820;182;928462;-63
2021/10/28 06:13:44;;;;;;;102.53;49.22;;;;;;;;;;764800;182;919239;-63
2021/10/28 06:16:08;;;;;;;108.87;50.30;;;;;;;;;;770885;183;918442;-64
2021/10/28 06:18:36;;;;;;;115.47;51.90;;;;;;;;;;766749;183;917913;-63
2021/10/28 06:20:59;;;;;;;102.37;47.90;;;;;;;;;;764513;183;919747;-63
2021/10/28 06:23:25;;;;;;;101.50;46.80;;;;;;;;;;764685;183;929524;-63
2021/10/28 06:25:51;;;;;;;96.30;44.50;;;;;;;;;;768611;183;919123;-63
2021/10/28 06:28:17;;;;;;;94.90;46.73;;;;;;;;;;767297;183;908065;-63
2021/10/28 06:30:43;;;;;;;97.57;46.20;;;;;;;;;;764370;183;919544;-64
2021/10/28 06:33:12;;;;;;;93.17;45.63;;;;;;;;;;768915;183;919049;-63
2021/10/28 06:35:34;;;;;;;98.93;46.87;;;;;;;;;;765235;183;918802;-64
2021/10/28 06:38:00;;;;;;;92.23;47.33;;;;;;;;;;768456;183;614807;-64
2021/10/28 06:40:26;;;;;;;86.17;48.60;;;;;;;;;;773304;183;625045;-64
2021/10/28 06:42:52;;;;;;;78.93;42.33;;;;;;;;;;768864;183;623256;-64
2021/10/28 06:45:17;;;;;;;89.60;45.67;;;;;;;;;;768674;183;625650;-64
2021/10/28 06:47:43;;;;;;;78.10;40.07;;;;;;;;;;767855;183;723935;-66
2021/10/28 06:50:13;;;;;;;87.40;47.00;;;;;;;;;;769496;181;915917;-64
2021/10/28 06:52:57;;;;;;;86.63;45.50;;;;;;;;;;769624;183;619995;-64
2021/10/28 06:55:33;;;;;;;98.20;46.63;;;;;;;;;;764698;183;1119901;-65
2021/10/28 07:03:06;;;;;;;95.07;44.67;;;;;;;;;;765017;182;919190;-64
2021/10/28 07:05:32;;;;;;;133.50;76.67;;;;;;;;;;772351;183;613303;-65
2021/10/28 07:07:58;;;;;;;332.60;168.83;;;;;;;;;;763102;183;918717;-65
2021/10/28 07:10:25;;;;;;;110.15;55.97;;;;;;;;;;765667;183;919176;-64
2021/10/28 07:12:54;;;;;;;232.33;114.93;;;;;;;;;;769702;183;919003;-64
2021/10/28 07:15:23;;;;;;;158.90;76.23;;;;;;;;;;764017;183;920289;-64
2021/10/28 07:18:04;;;;;;;105.33;56.27;;;;;;;;;;764829;183;917932;-64
2021/10/28 07:20:34;;;;;;;113.77;53.67;;;;;;;;;;764947;181;1010551;-63
2021/10/28 07:23:10;;;;;;;127.57;67.77;;;;;;;;;;769134;182;916166;-62
2021/10/28 07:30:44;;;;;;;106.03;54.60;;;;;;;;;;756748;183;919104;-62
2021/10/28 07:33:19;;;;;;;105.10;56.65;;;;;;;;;;763078;183;919371;-64
2021/10/28 07:38:41;;;;;;;87.60;49.05;;;;;;;;;;758341;183;917947;-65
2021/10/28 07:56:34;;;;;;;75.80;39.20;;;;;;;;;;769465;183;935628;-63
2021/10/28 07:59:15;;;;;;;80.37;40.40;;;;;;;;;;769030;183;919151;-64
2021/10/28 08:15:34;;;;;;;103.13;53.27;;;;;;;;;;769663;183;630480;-65
2021/10/28 08:19:45;;;;;;;105.70;55.00;;;;;;;;;;752480;186;779775;-65
2021/10/28 08:22:15;;;;;;;103.67;54.47;;;;;;;;;;771176;179;630418;-65
2021/10/28 08:29:56;;;;;;;102.53;55.97;;;;;;;;;;767927;183;642739;-65
2021/10/28 08:32:20;;;;;;;108.57;57.63;;;;;;;;;;770796;182;648237;-65
2021/10/28 08:34:49;;;;;;;100.37;52.70;;;;;;;;;;774220;183;618896;-66
2021/10/28 08:37:14;;;;;;;93.40;50.60;;;;;;;;;;771146;183;628873;-65
2021/10/28 08:39:39;;;;;;;85.10;49.80;;;;;;;;;;765778;183;636873;-65
2021/10/28 08:42:06;;;;;;;83.23;48.63;;;;;;;;;;776195;183;614342;-65
2021/10/28 08:44:34;;;;;;;78.77;46.27;;;;;;;;;;767880;183;743513;-65
2021/10/28 08:46:58;;;;;;;68.37;43.23;;;;;;;;;;769426;180;634741;-66
2021/10/28 08:49:31;;;;;;;67.00;41.73;;;;;;;;;;769199;183;629106;-66
2021/10/28 08:52:02;;;;;;;73.80;37.83;;;;;;;;;;763341;183;649075;-66
2021/10/28 08:56:59;;;;;;;59.83;38.10;;;;;;;;;;769738;183;643793;-66
2021/10/28 09:25:14;;;;;;;39.23;25.57;;;;;;;;;;771783;183;668901;-67
2021/10/28 09:28:17;;;;;;;37.20;26.70;;;;;;;;;;764653;183;634887;-69
2021/10/28 09:30:35;;;;;;;35.13;25.23;;;;;;;;;;763402;183;629785;-68
2021/10/28 09:33:07;;;;;;;46.73;27.40;;;;;;;;;;768660;183;919012;-67
2021/10/28 09:35:58;;;;;;;34.80;25.20;;;;;;;;;;770084;183;640004;-67
2021/10/28 09:44:10;;;;;;;46.07;26.73;;;;;;;;;;768610;182;621101;-67
2021/10/28 09:46:33;;;;;;;34.73;25.03;;;;;;;;;;756402;182;780648;-69
2021/10/28 09:49:50;;;;;;;39.13;27.00;;;;;;;;;;770336;183;665973;-68
2021/10/28 09:51:13;;;;;;;41.37;28.27;;;;;;;;;;767755;183;670319;-69
2021/10/28 09:54:12;;;;;;;38.80;27.43;;;;;;;;;;767892;183;659452;-69
2021/10/28 09:59:08;;;;;;;43.27;28.80;;;;;;;;;;769649;183;634598;-69
2021/10/28 10:01:34;;;;;;;34.77;24.43;;;;;;;;;;769106;183;632932;-67
2021/10/28 10:04:00;;;;;;;41.90;25.17;;;;;;;;;;770242;183;631371;-68
2021/10/28 10:06:26;;;;;;;37.37;24.53;;;;;;;;;;768977;183;634263;-68
2021/10/28 10:08:53;;;;;;;36.33;25.67;;;;;;;;;;768622;183;643906;-69
2021/10/28 10:11:23;;;;;;;37.20;26.07;;;;;;;;;;770276;183;632092;-68
2021/10/28 10:13:43;;;;;;;35.43;25.93;;;;;;;;;;765967;183;633307;-69
2021/10/28 10:16:11;;;;;;;39.50;27.60;;;;;;;;;;764780;183;619437;-69
2021/10/28 10:18:38;;;;;;;38.83;25.70;;;;;;;;;;774460;182;618253;-68
2021/10/28 10:21:08;;;;;;;32.40;25.27;;;;;;;;;;769350;183;649515;-68
2021/10/28 10:26:36;;;;;;;40.37;26.67;;;;;;;;;;764534;183;628226;-69
2021/10/28 10:29:42;;;;;;;36.60;24.47;;;;;;;;;;766066;183;637602;-69
2021/10/28 11:03:44;;;;;;;39.27;27.63;;;;;;;;;;767450;183;616623;-69
2021/10/28 11:06:08;;;;;;;32.53;24.03;;;;;;;;;;768114;183;901883;-69
2021/10/28 11:19:42;;;;;;;34.63;26.00;;;;;;;;;;772209;183;642678;-70
2021/10/28 11:27:34;;;;;;;37.53;26.27;;;;;;;;;;769626;183;628416;-71
2021/10/28 11:30:11;;;;;;;39.50;27.83;;;;;;;;;;758277;183;639421;-71
2021/10/28 12:20:24;;;;;;;35.23;25.60;;;;;;;;;;773526;183;632652;-70
2021/10/28 12:28:11;;;;;;;34.97;23.80;;;;;;;;;;768578;183;638912;-71
2021/10/28 12:45:59;;;;;;;38.17;26.07;;;;;;;;;;766485;183;919025;-71
2021/10/28 12:49:17;;;;;;;38.10;26.47;;;;;;;;;;768738;183;640872;-71
2021/10/28 12:51:28;;;;;;;45.07;25.40;;;;;;;;;;765183;183;700909;-71
2021/10/28 12:54:01;;;;;;;34.63;24.83;;;;;;;;;;764994;183;706920;-72
2021/10/28 12:56:26;;;;;;;33.77;24.70;;;;;;;;;;769727;183;630220;-71
2021/10/28 13:04:08;;;;;;;33.83;24.40;;;;;;;;;;768048;183;621496;-71
2021/10/28 13:49:57;;;;;;;14.07;10.17;;;;;;;;;;768981;183;850201;-70
2021/10/28 13:55:01;;;;;;;13.43;10.40;;;;;;;;;;769776;183;623058;-72
2021/10/28 13:57:40;;;;;;;13.20;10.00;;;;;;;;;;766046;183;621630;-70
2021/10/28 14:16:08;;;;;;;13.20;9.00;;;;;;;;;;768474;183;629775;-70
2021/10/28 15:29:27;;;;;;;12.77;10.10;;;;;;;;;;772087;183;627627;-68
2021/10/28 15:34:44;;;;;;;14.00;8.83;;;;;;;;;;752837;185;816171;-69
2021/10/28 15:37:11;;;;;;;11.57;8.43;;;;;;;;;;762786;183;637213;-69
2021/10/28 15:39:36;;;;;;;16.00;10.00;;;;;;;;;;766427;183;627797;-68
2021/10/28 15:57:23;;;;;;;15.13;9.60;;;;;;;;;;772388;183;630446;-68
2021/10/28 15:59:52;;;;;;;18.33;10.80;;;;;;;;;;768524;183;617837;-68
2021/10/28 16:22:21;;;;;;;18.00;11.37;;;;;;;;;;766866;183;906980;-67
2021/10/28 16:24:46;;;;;;;20.73;11.80;;;;;;;;;;767578;183;631654;-67
2021/10/28 16:27:12;;;;;;;18.20;11.83;;;;;;;;;;770822;183;630271;-67
2021/10/28 16:29:38;;;;;;;24.73;12.93;;;;;;;;;;768262;183;627813;-66
2021/10/28 16:32:04;;;;;;;22.73;12.93;;;;;;;;;;767298;183;614677;-66
2021/10/28 16:34:30;;;;;;;21.70;12.70;;;;;;;;;;767238;183;816830;-66
2021/10/28 16:36:56;;;;;;;22.77;12.67;;;;;;;;;;773286;183;627289;-66
2021/10/28 16:39:22;;;;;;;16.00;13.53;;;;;;;;;;767308;183;641278;-67
2021/10/28 16:41:48;;;;;;;19.20;12.80;;;;;;;;;;768926;183;632329;-66
2021/10/28 16:44:14;;;;;;;24.13;15.17;;;;;;;;;;773323;183;646573;-65
2021/10/28 16:46:39;;;;;;;21.60;14.60;;;;;;;;;;767901;183;906109;-66
2021/10/28 16:49:05;;;;;;;19.73;13.83;;;;;;;;;;770585;183;613909;-66
2021/10/28 16:51:32;;;;;;;20.83;15.37;;;;;;;;;;771873;181;629306;-67
2021/10/28 16:53:57;;;;;;;22.20;14.70;;;;;;;;;;769814;182;627553;-66
2021/10/28 16:56:23;;;;;;;23.70;17.03;;;;;;;;;;769024;182;626927;-67
2021/10/28 16:58:49;;;;;;;27.57;17.33;;;;;;;;;;770116;183;628763;-66
2021/10/28 17:01:15;;;;;;;29.13;18.03;;;;;;;;;;775245;183;632226;-66
2021/10/28 17:03:41;;;;;;;25.73;16.47;;;;;;;;;;769916;182;653271;-65
2021/10/28 17:06:07;;;;;;;25.40;16.70;;;;;;;;;;769654;183;625648;-65
2021/10/28 17:08:33;;;;;;;25.23;17.77;;;;;;;;;;771682;183;618833;-64
2021/10/28 17:10:59;;;;;;;36.03;21.20;;;;;;;;;;770745;183;629113;-65
2021/10/28 17:13:24;;;;;;;33.07;23.40;;;;;;;;;;770389;183;918049;-66
2021/10/28 17:15:50;;;;;;;34.30;21.37;;;;;;;;;;770291;183;627284;-65
2021/10/28 17:18:16;;;;;;;43.87;25.80;;;;;;;;;;769471;183;643599;-67
2021/10/28 17:20:42;;;;;;;39.03;23.97;;;;;;;;;;768923;183;631931;-64
2021/10/28 17:23:14;;;;;;;48.13;23.40;;;;;;;;;;768886;183;637984;-65
2021/10/28 17:25:39;;;;;;;39.93;24.10;;;;;;;;;;769758;183;619318;-65
2021/10/28 17:28:03;;;;;;;58.57;25.13;;;;;;;;;;770236;183;628302;-64
2021/10/28 17:30:29;;;;;;;49.33;26.83;;;;;;;;;;766850;183;908162;-64
2021/10/28 17:32:55;;;;;;;43.57;24.90;;;;;;;;;;772371;183;632285;-64
2021/10/28 17:35:20;;;;;;;43.87;26.17;;;;;;;;;;768792;183;626972;-64
2021/10/28 17:37:46;;;;;;;43.43;24.77;;;;;;;;;;767713;183;651085;-64
2021/10/28 17:40:12;;;;;;;46.47;24.93;;;;;;;;;;771088;183;622986;-64
2021/10/28 17:42:39;;;;;;;47.63;29.30;;;;;;;;;;770001;183;625340;-64
2021/10/28 17:45:05;;;;;;;45.33;27.43;;;;;;;;;;769283;183;629783;-64
2021/10/28 17:47:30;;;;;;;44.27;26.73;;;;;;;;;;770200;183;643723;-64
2021/10/28 17:49:56;;;;;;;52.83;30.13;;;;;;;;;;773728;183;625934;-64
2021/10/28 17:52:22;;;;;;;46.97;27.87;;;;;;;;;;767894;183;626928;-64
2021/10/28 17:54:48;;;;;;;56.53;27.97;;;;;;;;;;767808;183;766651;-64
2021/10/28 17:57:14;;;;;;;43.63;28.33;;;;;;;;;;772668;183;616941;-64
2021/10/28 17:59:39;;;;;;;40.80;26.30;;;;;;;;;;767295;182;636542;-64
2021/10/28 18:02:05;;;;;;;40.10;26.67;;;;;;;;;;767937;183;627298;-64
2021/10/28 18:04:31;;;;;;;47.43;30.27;;;;;;;;;;773510;181;623419;-63
2021/10/28 18:06:57;;;;;;;44.37;27.97;;;;;;;;;;770692;182;633351;-63
2021/10/28 18:09:24;;;;;;;43.60;27.10;;;;;;;;;;768370;183;807730;-64
2021/10/28 18:11:49;;;;;;;37.47;26.13;;;;;;;;;;769145;183;648342;-64
2021/10/28 18:14:16;;;;;;;39.63;26.00;;;;;;;;;;774139;183;626669;-63
2021/10/28 18:16:41;;;;;;;34.53;24.17;;;;;;;;;;766870;183;651985;-63
2021/10/28 18:19:08;;;;;;;41.97;25.43;;;;;;;;;;768014;183;640173;-63
2021/10/28 18:21:34;;;;;;;41.73;26.13;;;;;;;;;;773157;183;636120;-63
2021/10/28 18:23:59;;;;;;;43.13;25.63;;;;;;;;;;768607;183;623954;-64
2021/10/28 18:26:24;;;;;;;47.40;27.90;;;;;;;;;;766632;183;660343;-65
2021/10/28 18:28:50;;;;;;;53.93;29.67;;;;;;;;;;772357;183;632038;-64
2021/10/28 18:31:16;;;;;;;51.63;26.57;;;;;;;;;;770268;183;639257;-63
2021/10/28 18:33:43;;;;;;;43.37;26.93;;;;;;;;;;768549;183;630901;-67
2021/10/28 18:36:09;;;;;;;40.70;26.57;;;;;;;;;;769236;183;829823;-64
2021/10/28 18:38:34;;;;;;;47.27;28.30;;;;;;;;;;772819;180;710477;-64
2021/10/28 18:41:00;;;;;;;46.63;27.23;;;;;;;;;;768601;183;637476;-64
2021/10/28 18:43:25;;;;;;;46.63;26.08;;;;;;;;;;768450;183;915187;-62
2021/10/28 18:45:51;;;;;;;46.80;27.27;;;;;;;;;;770560;183;664867;-64
2021/10/28 18:48:17;;;;;;;36.33;24.60;;;;;;;;;;766043;183;649527;-64
2021/10/28 18:50:43;;;;;;;38.60;26.10;;;;;;;;;;766474;183;633626;-64
2021/10/28 18:53:09;;;;;;;47.83;24.03;;;;;;;;;;771660;183;630983;-64
2021/10/28 18:55:36;;;;;;;34.83;24.60;;;;;;;;;;768512;183;620171;-63
2021/10/28 18:58:01;;;;;;;38.40;22.43;;;;;;;;;;767844;183;617679;-64
2021/10/28 19:00:27;;;;;;;37.60;23.90;;;;;;;;;;769967;183;624858;-63
2021/10/28 19:02:53;;;;;;;35.70;21.73;;;;;;;;;;773669;180;615206;-63
2021/10/28 19:05:20;;;;;;;35.80;23.70;;;;;;;;;;768209;183;646599;-67
2021/10/28 19:07:44;;;;;;;40.60;25.07;;;;;;;;;;771028;183;625423;-65
2021/10/28 19:10:10;;;;;;;36.87;24.67;;;;;;;;;;773547;183;629003;-63
2021/10/28 19:12:36;;;;;;;33.87;23.53;;;;;;;;;;767976;183;641865;-62
2021/10/28 19:15:03;;;;;;;36.80;24.73;;;;;;;;;;769008;182;626539;-63
2021/10/28 19:17:28;;;;;;;39.13;26.57;;;;;;;;;;773332;182;638273;-62
2021/10/28 19:19:54;;;;;;;37.53;24.57;;;;;;;;;;768762;182;624898;-63
2021/10/28 19:22:20;;;;;;;38.13;23.20;;;;;;;;;;769871;183;638518;-63
2021/10/28 19:24:46;;;;;;;34.95;24.45;;;;;;;;;;772395;183;917650;-61
2021/10/28 19:27:12;;;;;;;38.17;24.00;;;;;;;;;;771602;183;628286;-64
2021/10/28 19:29:43;;;;;;;43.33;25.20;;;;;;;;;;770178;183;637365;-63
2021/10/28 19:32:11;;;;;;;37.33;24.70;;;;;;;;;;768430;183;629727;-63
2021/10/28 19:34:37;;;;;;;35.43;23.50;;;;;;;;;;773327;183;639894;-64
2021/10/28 19:37:04;;;;;;;36.90;23.80;;;;;;;;;;766685;183;623080;-63
2021/10/28 19:42:21;;;;;;;44.00;25.27;;;;;;;;;;746118;186;629141;-63
2021/10/28 19:47:06;;;;;;;33.40;21.90;;;;;;;;;;772201;183;627548;-64
2021/10/28 19:49:32;;;;;;;37.33;22.00;;;;;;;;;;768580;183;633532;-63
2021/10/28 19:52:01;;;;;;;41.60;24.73;;;;;;;;;;767850;183;623963;-64
2021/10/28 19:54:24;;;;;;;43.67;25.40;;;;;;;;;;769777;183;918576;-63
2021/10/28 19:56:49;;;;;;;37.28;24.70;;;;;;;;;;764057;183;923700;-64
2021/10/28 19:59:18;;;;;;;37.27;25.03;;;;;;;;;;763220;183;919613;-62
2021/10/28 20:04:35;;;;;;;42.37;26.60;;;;;;;;;;768509;183;917390;-62
2021/10/28 20:07:02;;;;;;;36.30;24.67;;;;;;;;;;769039;183;919189;-62
2021/10/28 20:20:04;;;;;;;46.10;28.47;;;;;;;;;;764833;183;919080;-62
2021/10/28 20:22:12;;;;;;;46.80;28.43;;;;;;;;;;768598;183;918322;-63
2021/10/28 20:24:38;;;;;;;44.13;26.23;;;;;;;;;;764217;183;920213;-61
2021/10/28 20:27:04;;;;;;;40.60;26.07;;;;;;;;;;764517;182;919187;-63
2021/10/28 20:29:30;;;;;;;37.63;24.40;;;;;;;;;;770594;182;918114;-63
2021/10/28 20:31:55;;;;;;;38.00;26.60;;;;;;;;;;765670;182;918176;-62
2021/10/28 20:34:31;;;;;;;42.97;28.42;;;;;;;;;;764817;182;919070;-63
2021/10/28 20:39:25;;;;;;;40.40;24.07;;;;;;;;;;770402;183;918194;-62
2021/10/28 20:41:50;;;;;;;39.13;25.80;;;;;;;;;;765982;183;919379;-62
2021/10/28 20:44:15;;;;;;;38.17;25.50;;;;;;;;;;764091;183;926768;-63
2021/10/28 20:46:42;;;;;;;39.90;24.87;;;;;;;;;;770316;182;919726;-63
2021/10/28 20:49:07;;;;;;;31.57;23.63;;;;;;;;;;765940;183;918442;-62
2021/10/28 20:51:33;;;;;;;35.47;25.27;;;;;;;;;;763156;183;1079273;-62
2021/10/28 20:54:00;;;;;;;45.27;27.50;;;;;;;;;;766589;183;1328677;-63
2021/10/28 20:56:27;;;;;;;37.10;26.07;;;;;;;;;;761062;183;919366;-63
2021/10/28 20:58:51;;;;;;;44.65;27.00;;;;;;;;;;763521;182;918680;-61
2021/10/28 21:01:16;;;;;;;57.03;30.70;;;;;;;;;;764638;183;919752;-62
2021/10/28 21:03:44;;;;;;;38.17;29.00;;;;;;;;;;768936;183;919621;-62
2021/10/28 21:06:08;;;;;;;47.37;30.30;;;;;;;;;;762875;183;918654;-63
2021/10/28 21:08:34;;;;;;;46.03;31.37;;;;;;;;;;763189;183;918980;-62
2021/10/28 21:11:01;;;;;;;45.33;27.80;;;;;;;;;;769033;183;918559;-63
2021/10/28 21:13:26;;;;;;;51.50;32.13;;;;;;;;;;762866;183;919093;-62
2021/10/28 21:15:52;;;;;;;47.37;29.67;;;;;;;;;;763598;182;920072;-63
2021/10/28 21:18:18;;;;;;;46.20;28.53;;;;;;;;;;767415;183;1021542;-63
2021/10/28 21:20:44;;;;;;;47.67;30.70;;;;;;;;;;763552;183;919017;-63
2021/10/28 21:23:10;;;;;;;49.40;32.20;;;;;;;;;;765154;183;918817;-63
2021/10/28 21:25:35;;;;;;;50.23;31.70;;;;;;;;;;765651;183;919542;-62
2021/10/28 21:28:01;;;;;;;56.60;33.40;;;;;;;;;;768860;180;918499;-63
2021/10/28 21:30:27;;;;;;;56.50;34.30;;;;;;;;;;759601;183;1503994;-62
2021/10/28 21:32:53;;;;;;;51.23;35.57;;;;;;;;;;764033;183;975579;-62